Airport Information

KSPB - Scappoose Industrial Airpark Airport

KSPB 251153Z AUTO 36003KT 10SM CLR 06/03 A2996 RMK AO2 SLP145 T00610028 10078 20039 58026


  • General Information

  • Coordinates: N 45°46'15"/ W 122°51'42"
  • Location: N/A
  • Surveyed Elevation: 58 MSL

Operations

Flow Name Active Runways Conditions

Green background denotes normal operations.


Common Frequencies

Callsign Frequency Position Name

More at the Document Center


Charts